Time;durP1;ratioP1;P1;durP2;ratioP2;P2;SDS_P1;SDS_P2;PMS_P1;PMS_P2;Temp;Humidity;BMP_temperature;BMP_pressure;BME280_temperature;BME280_humidity;BME280_pressure;Samples;Min_cycle;Max_cycle;Signal;HPM_P1;HPM_P2
2023/01/31 00:00:03;;;;;;;;;;;4.20;99.90;4.70;100725.00;;;;343065;28;83513;-87
2023/01/31 00:00:15;;;;;;;;;;;4.10;99.90;4.80;100728.00;;;;344193;28;90448;-87
2023/01/31 00:00:27;;;;;;;;;;;4.10;99.90;4.70;100722.00;;;;344804;28;83317;-87
2023/01/31 00:00:39;;;;;;;;;;;4.20;99.90;4.80;100725.00;;;;344228;28;89458;-87
2023/01/31 00:00:51;;;;;;;;;;;4.20;99.90;4.70;100718.00;;;;343402;28;82444;-86
2023/01/31 00:01:13;;;;;;;;;;;4.20;99.90;4.80;100729.00;;;;342689;28;87456;-87
2023/01/31 00:01:27;;;;;;;;;;;4.20;99.90;4.70;100729.00;;;;342044;28;83381;-86
2023/01/31 00:01:39;;;;;;;;;;;4.20;99.90;4.70;100727.00;;;;344270;28;90751;-87
2023/01/31 00:01:50;;;;;;;;;;;4.20;99.90;4.60;100721.00;;;;343419;28;83092;-87
2023/01/31 00:02:02;;;;;;;;;;;4.20;99.90;4.70;100725.00;;;;342757;28;92406;-87
2023/01/31 00:02:14;;;;;;;;;;;4.20;99.90;4.70;100718.00;;;;343433;28;83331;-86
2023/01/31 00:02:26;;;;;;;;;;;4.20;99.90;4.70;100718.00;;;;344184;28;92850;-86
2023/01/31 00:02:37;;;;;;;;;;;4.20;99.90;4.60;100726.00;;;;343318;28;82504;-86
2023/01/31 00:02:49;;;;;;;;;;;4.20;99.90;4.60;100725.00;;;;342930;28;92114;-87
2023/01/31 00:03:01;;;;;;;;;;;4.20;99.90;4.60;100728.00;;;;343311;28;83470;-87
2023/01/31 00:03:13;;;;;;;;;;;4.20;99.90;4.60;100721.00;;;;344290;28;90172;-87
2023/01/31 00:03:24;;;;;;;;;;;4.20;99.90;4.60;100723.00;;;;343092;28;83498;-88
2023/01/31 00:03:37;;;;;;;;;;;4.20;99.90;4.60;100718.00;;;;341416;28;90800;-87
2023/01/31 00:03:56;;;;;;;;;;;4.10;99.90;4.60;100720.00;;;;344478;28;83237;-87
2023/01/31 00:04:10;;;;;;;;;;;4.20;99.90;4.60;100734.00;;;;344403;28;89558;-87
2023/01/31 00:04:22;;;;;;;;;;;4.20;99.90;4.70;100726.00;;;;340505;28;82536;-87
2023/01/31 00:04:34;;;;;;;;;;;4.10;99.90;4.80;100724.00;;;;343670;28;92339;-87
2023/01/31 00:04:45;;;;;;;;;;;4.10;99.90;4.70;100731.00;;;;343144;28;83469;-87
2023/01/31 00:04:57;;;;;;;;;;;4.20;99.90;4.80;100721.00;;;;338771;28;89341;-87
2023/01/31 00:05:09;;;;;;;;;;;4.20;99.90;4.70;100723.00;;;;343238;28;82589;-87
2023/01/31 00:05:21;;;;;;;;;;;4.20;99.90;4.80;100727.00;;;;342659;28;90608;-85
2023/01/31 00:05:33;;;;;;;;;;;4.10;99.90;4.80;100725.00;;;;339118;28;83504;-87
2023/01/31 00:05:45;;;;;;;;;;;4.20;99.90;4.80;100713.00;;;;340042;28;89255;-87
2023/01/31 00:05:57;;;;;;;;;;;4.20;99.90;4.80;100725.00;;;;344299;28;83638;-87
2023/01/31 00:06:10;;;;;;;;;;;4.20;99.90;4.80;100722.00;;;;342978;28;88374;-87
2023/01/31 00:06:32;;;;;;;;;;;4.20;99.90;4.90;100723.00;;;;339333;28;82355;-87
2023/01/31 00:06:49;;;;;;;;;;;4.20;99.90;4.80;100725.00;;;;344096;28;90925;-87
2023/01/31 00:07:01;;;;;;;;;;;4.20;99.90;4.80;100722.00;;;;344673;28;83485;-87
2023/01/31 00:07:13;;;;;;;;;;;4.20;99.90;4.80;100725.00;;;;344011;28;90485;-87
2023/01/31 00:07:25;;;;;;;;;;;4.20;99.90;4.80;100725.00;;;;344770;28;83446;-87
2023/01/31 00:07:37;;;;;;;;;;;4.20;99.90;4.70;100719.00;;;;341615;28;88941;-87
2023/01/31 00:07:49;;;;;;;;;;;4.20;99.90;4.70;100726.00;;;;344545;28;82611;-87
2023/01/31 00:08:01;;;;;;;;;;;4.20;99.90;4.80;100726.00;;;;341530;28;90589;-87
2023/01/31 00:08:14;;;;;;;;;;;4.20;99.90;4.80;100722.00;;;;340668;28;83481;-86
2023/01/31 00:08:25;;;;;;;;;;;4.20;99.90;4.80;100731.00;;;;344292;28;90428;-87
2023/01/31 00:08:37;;;;;;;;;;;4.20;99.90;4.70;100722.00;;;;344695;28;83340;-87
2023/01/31 00:08:49;;;;;;;;;;;4.20;99.90;4.80;100722.00;;;;342890;28;92591;-87
2023/01/31 00:09:02;;;;;;;;;;;4.20;99.90;4.70;100726.00;;;;342007;28;83441;-86
2023/01/31 00:09:14;;;;;;;;;;;4.20;99.90;4.80;100725.00;;;;344192;28;92230;-87
2023/01/31 00:09:25;;;;;;;;;;;4.20;99.90;4.80;100732.00;;;;342935;28;83565;-87
2023/01/31 00:09:37;;;;;;;;;;;4.20;99.90;4.70;100727.00;;;;341499;28;91464;-87
2023/01/31 00:09:49;;;;;;;;;;;4.20;99.90;4.70;100725.00;;;;341896;28;82398;-87
2023/01/31 00:10:00;;;;;;;;;;;4.20;99.90;4.70;100721.00;;;;340163;28;91205;-87
2023/01/31 00:10:12;;;;;;;;;;;4.20;99.90;4.80;100725.00;;;;340717;28;83514;-87
2023/01/31 00:10:24;;;;;;;;;;;4.20;99.90;4.90;100720.00;;;;342968;28;88590;-87
2023/01/31 00:10:36;;;;;;;;;;;4.20;99.90;4.90;100725.00;;;;341901;28;83440;-87
2023/01/31 00:10:47;;;;;;;;;;;4.20;99.90;4.90;100725.00;;;;342897;28;91854;-87
2023/01/31 00:10:59;;;;;;;;;;;4.20;99.90;4.70;100728.00;;;;342116;28;83317;-87
2023/01/31 00:11:11;;;;;;;;;;;4.20;99.90;4.70;100731.00;;;;338897;28;89633;-87
2023/01/31 00:11:25;;;;;;;;;;;4.20;99.90;4.60;100726.00;;;;343409;28;82566;-87
2023/01/31 00:11:36;;;;;;;;;;;4.20;99.90;4.60;100726.00;;;;341525;28;92244;-87
2023/01/31 00:11:49;;;;;;;;;;;4.20;99.90;4.60;100728.00;;;;340592;28;83326;-87
2023/01/31 00:12:00;;;;;;;;;;;4.20;99.90;4.70;100722.00;;;;341478;28;91998;-87
2023/01/31 00:12:12;;;;;;;;;;;4.20;99.90;4.70;100718.00;;;;344696;28;82589;-87
2023/01/31 00:12:24;;;;;;;;;;;4.20;99.90;4.70;100723.00;;;;343011;28;89246;-86
2023/01/31 00:12:36;;;;;;;;;;;4.20;99.90;4.70;100721.00;;;;341565;28;83478;-86
2023/01/31 00:12:47;;;;;;;;;;;4.20;99.90;4.80;100723.00;;;;341191;28;91629;-87
2023/01/31 00:12:59;;;;;;;;;;;4.20;99.90;4.80;100724.00;;;;343388;28;83232;-87
2023/01/31 00:13:11;;;;;;;;;;;4.20;99.90;4.80;100721.00;;;;342803;28;92376;-87
2023/01/31 00:13:23;;;;;;;;;;;4.20;99.90;4.80;100716.00;;;;341991;28;83484;-87
2023/01/31 00:13:35;;;;;;;;;;;4.20;99.90;4.80;100720.00;;;;342956;28;89475;-86
2023/01/31 00:13:46;;;;;;;;;;;4.20;99.90;4.80;100712.00;;;;341965;28;83494;-87
2023/01/31 00:13:58;;;;;;;;;;;4.20;99.90;4.80;100725.00;;;;344075;28;89802;-86
2023/01/31 00:14:10;;;;;;;;;;;4.20;99.90;4.70;100724.00;;;;340677;28;83106;-87
2023/01/31 00:14:23;;;;;;;;;;;4.20;99.90;4.70;100717.00;;;;340053;28;92105;-86
2023/01/31 00:14:35;;;;;;;;;;;4.20;99.90;4.70;100722.00;;;;343404;28;83394;-87
2023/01/31 00:14:47;;;;;;;;;;;4.20;99.90;4.60;100732.00;;;;342599;28;90296;-87
2023/01/31 00:14:59;;;;;;;;;;;4.20;99.90;4.60;100726.00;;;;340621;28;82532;-87
2023/01/31 00:15:15;;;;;;;;;;;4.20;99.90;4.70;100711.00;;;;344222;28;91253;-87
2023/01/31 00:15:26;;;;;;;;;;;4.20;99.90;4.70;100728.00;;;;343400;28;83355;-86
2023/01/31 00:15:38;;;;;;;;;;;4.20;99.90;4.70;100718.00;;;;341586;28;89208;-87
2023/01/31 00:15:50;;;;;;;;;;;4.20;99.90;4.70;100722.00;;;;341930;28;83456;-87
2023/01/31 00:16:02;;;;;;;;;;;4.20;99.90;4.70;100722.00;;;;344183;28;91270;-86
2023/01/31 00:16:14;;;;;;;;;;;4.20;99.90;4.70;100722.00;;;;341951;28;83404;-87
2023/01/31 00:16:26;;;;;;;;;;;4.20;99.90;4.70;100719.00;;;;342903;28;92023;-86
2023/01/31 00:16:38;;;;;;;;;;;4.10;99.90;4.70;100711.00;;;;343431;28;82479;-87
2023/01/31 00:16:51;;;;;;;;;;;4.20;99.90;4.80;100715.00;;;;340213;28;90541;-87
2023/01/31 00:17:02;;;;;;;;;;;4.20;99.90;4.80;100717.00;;;;342030;28;82599;-87
2023/01/31 00:17:14;;;;;;;;;;;4.20;99.90;4.80;100722.00;;;;340097;28;92205;-87
2023/01/31 00:17:26;;;;;;;;;;;4.20;99.90;4.80;100715.00;;;;343456;28;83466;-86
2023/01/31 00:17:37;;;;;;;;;;;4.20;99.90;4.90;100722.00;;;;344195;28;91521;-87
2023/01/31 00:17:51;;;;;;;;;;;4.20;99.90;4.90;100715.00;;;;341954;28;82526;-87
2023/01/31 00:18:02;;;;;;;;;;;4.20;99.90;4.90;100718.00;;;;342844;28;91924;-86
2023/01/31 00:18:14;;;;;;;;;;;4.20;99.90;4.80;100716.00;;;;346084;28;83388;-87
2023/01/31 00:18:26;;;;;;;;;;;4.20;99.90;4.70;100724.00;;;;344221;28;91712;-87
2023/01/31 00:18:38;;;;;;;;;;;4.20;99.90;4.80;100712.00;;;;341712;28;83259;-87
2023/01/31 00:18:50;;;;;;;;;;;4.20;99.90;4.80;100715.00;;;;344330;28;89671;-87
2023/01/31 00:19:02;;;;;;;;;;;4.20;99.90;4.90;100717.00;;;;343424;28;82455;-87
2023/01/31 00:19:14;;;;;;;;;;;4.20;99.90;4.80;100712.00;;;;342909;28;89674;-87
2023/01/31 00:19:26;;;;;;;;;;;4.20;99.90;4.80;100706.00;;;;343407;28;82601;-87
2023/01/31 00:19:38;;;;;;;;;;;4.20;99.90;4.80;100712.00;;;;342848;28;92285;-87
2023/01/31 00:19:50;;;;;;;;;;;4.20;99.90;4.80;100715.00;;;;343382;28;83374;-87
2023/01/31 00:20:02;;;;;;;;;;;4.20;99.90;4.90;100712.00;;;;342705;28;92085;-86
2023/01/31 00:20:14;;;;;;;;;;;4.20;99.90;4.90;100712.00;;;;343376;28;83342;-87
2023/01/31 00:20:25;;;;;;;;;;;4.20;99.90;4.90;100715.00;;;;342832;28;91208;-87
2023/01/31 00:20:37;;;;;;;;;;;4.30;99.90;4.90;100716.00;;;;341979;28;83500;-87
2023/01/31 00:20:49;;;;;;;;;;;4.30;99.90;4.80;100717.00;;;;342721;28;90555;-87
2023/01/31 00:21:25;;;;;;;;;;;4.20;99.90;4.90;100718.00;;;;344622;28;83426;-87
2023/01/31 00:21:37;;;;;;;;;;;4.20;99.90;4.90;100718.00;;;;337508;28;92107;-86
2023/01/31 00:21:49;;;;;;;;;;;4.30;99.90;4.80;100709.00;;;;340347;28;83505;-87
2023/01/31 00:22:00;;;;;;;;;;;4.30;99.90;4.90;100711.00;;;;342856;28;91408;-87
2023/01/31 00:22:12;;;;;;;;;;;4.30;99.90;4.90;100711.00;;;;343255;28;83262;-87
2023/01/31 00:22:24;;;;;;;;;;;4.30;99.90;4.90;100718.00;;;;342853;28;92132;-87
2023/01/31 00:22:36;;;;;;;;;;;4.30;99.90;4.90;100710.00;;;;340519;28;83421;-87
2023/01/31 00:22:49;;;;;;;;;;;4.30;99.90;4.90;100703.00;;;;342976;28;89398;-86
2023/01/31 00:23:00;;;;;;;;;;;4.30;99.90;4.90;100708.00;;;;342981;28;83488;-87
2023/01/31 00:23:12;;;;;;;;;;;4.30;99.90;4.90;100710.00;;;;341470;28;93130;-86
2023/01/31 00:23:24;;;;;;;;;;;4.30;99.90;4.90;100713.00;;;;340689;28;83510;-87
2023/01/31 00:23:36;;;;;;;;;;;4.30;99.90;4.80;100706.00;;;;342913;28;91448;-87
2023/01/31 00:23:49;;;;;;;;;;;4.30;99.90;4.80;100712.00;;;;344473;28;83554;-86
2023/01/31 00:24:01;;;;;;;;;;;4.30;99.90;4.80;100704.00;;;;342803;28;89662;-87
2023/01/31 00:24:13;;;;;;;;;;;4.30;99.90;4.80;100704.00;;;;341887;28;83520;-87
2023/01/31 00:24:24;;;;;;;;;;;4.30;99.90;4.90;100701.00;;;;344253;28;88081;-87
2023/01/31 00:24:36;;;;;;;;;;;4.30;99.90;4.90;100711.00;;;;344712;28;82912;-87
2023/01/31 00:24:49;;;;;;;;;;;4.30;99.90;4.90;100709.00;;;;340301;28;88552;-86
2023/01/31 00:25:00;;;;;;;;;;;4.30;99.90;4.90;100700.00;;;;340558;28;82369;-85
2023/01/31 00:25:12;;;;;;;;;;;4.30;99.90;4.80;100710.00;;;;342793;28;90117;-87
2023/01/31 00:25:24;;;;;;;;;;;4.30;99.90;4.80;100704.00;;;;344778;28;82621;-87
2023/01/31 00:25:36;;;;;;;;;;;4.30;99.90;4.70;100703.00;;;;342959;28;91375;-87
2023/01/31 00:25:48;;;;;;;;;;;4.30;99.90;4.70;100708.00;;;;340722;28;82421;-86
2023/01/31 00:26:29;;;;;;;;;;;4.30;99.90;4.80;100708.00;;;;340197;28;88083;-87
2023/01/31 00:26:41;;;;;;;;;;;4.30;99.90;4.70;100700.00;;;;340703;28;83510;-87
2023/01/31 00:26:55;;;;;;;;;;;4.20;99.90;4.70;100709.00;;;;341587;28;91546;-87
2023/01/31 00:27:07;;;;;;;;;;;4.20;99.90;4.80;100708.00;;;;344870;28;83272;-87
2023/01/31 00:27:19;;;;;;;;;;;4.20;99.90;4.70;100705.00;;;;341551;28;88752;-87
2023/01/31 00:27:31;;;;;;;;;;;4.20;99.90;4.80;100698.00;;;;339335;28;82604;-87
2023/01/31 00:27:42;;;;;;;;;;;4.20;99.90;4.70;100697.00;;;;344096;28;91766;-87
2023/01/31 00:27:54;;;;;;;;;;;4.20;99.90;4.80;100699.00;;;;343348;28;82408;-86
2023/01/31 00:28:06;;;;;;;;;;;4.20;99.90;4.80;100700.00;;;;342874;28;91642;-87
2023/01/31 00:28:17;;;;;;;;;;;4.20;99.90;4.80;100704.00;;;;343379;28;83458;-87
2023/01/31 00:28:29;;;;;;;;;;;4.30;99.90;4.70;100701.00;;;;344155;28;91400;-86
2023/01/31 00:28:41;;;;;;;;;;;4.20;99.90;4.70;100691.00;;;;343305;28;83476;-87
2023/01/31 00:28:53;;;;;;;;;;;4.20;99.90;4.70;100699.00;;;;342872;28;91271;-87
2023/01/31 00:29:05;;;;;;;;;;;4.20;99.90;4.70;100702.00;;;;342033;28;83545;-87
2023/01/31 00:29:17;;;;;;;;;;;4.20;99.90;4.80;100694.00;;;;338787;28;91146;-87
2023/01/31 00:29:29;;;;;;;;;;;4.20;99.90;4.80;100699.00;;;;343100;28;83488;-87
2023/01/31 00:29:40;;;;;;;;;;;4.20;99.90;4.80;100691.00;;;;342702;28;91117;-87
2023/01/31 00:29:52;;;;;;;;;;;4.20;99.90;4.80;100698.00;;;;343163;28;83373;-87
2023/01/31 00:30:05;;;;;;;;;;;4.20;99.90;4.80;100694.00;;;;342874;28;91584;-87
2023/01/31 00:30:16;;;;;;;;;;;4.20;99.90;4.80;100689.00;;;;341970;28;83404;-86
2023/01/31 00:30:28;;;;;;;;;;;4.20;99.90;4.80;100693.00;;;;338818;28;89636;-87
2023/01/31 00:30:40;;;;;;;;;;;4.20;99.90;4.80;100688.00;;;;339046;28;83375;-87
2023/01/31 00:30:52;;;;;;;;;;;4.20;99.90;4.90;100695.00;;;;342945;28;89197;-87
2023/01/31 00:31:04;;;;;;;;;;;4.30;99.90;4.90;100694.00;;;;341941;28;83631;-87
2023/01/31 00:31:16;;;;;;;;;;;4.30;99.90;4.90;100690.00;;;;338818;28;92287;-87
2023/01/31 00:31:29;;;;;;;;;;;4.30;99.90;4.90;100697.00;;;;341892;28;82652;-87
2023/01/31 00:31:41;;;;;;;;;;;4.30;99.90;4.90;100688.00;;;;342800;28;90480;-87
2023/01/31 00:31:54;;;;;;;;;;;4.30;99.90;4.90;100697.00;;;;344208;28;82602;-87
2023/01/31 00:32:06;;;;;;;;;;;4.30;99.90;4.80;100690.00;;;;341552;28;89194;-87
2023/01/31 00:32:18;;;;;;;;;;;4.30;99.90;4.80;100690.00;;;;339221;28;83478;-87
2023/01/31 00:32:29;;;;;;;;;;;4.30;99.90;4.90;100687.00;;;;342816;28;91290;-87
2023/01/31 00:32:41;;;;;;;;;;;4.30;99.90;4.90;100695.00;;;;343318;28;83478;-87
2023/01/31 00:32:53;;;;;;;;;;;4.30;99.90;4.90;100691.00;;;;345673;28;91519;-87
2023/01/31 00:33:05;;;;;;;;;;;4.30;99.90;4.80;100693.00;;;;344642;28;83414;-87
2023/01/31 00:33:17;;;;;;;;;;;4.30;99.90;4.80;100687.00;;;;341426;28;91715;-87
2023/01/31 00:33:28;;;;;;;;;;;4.30;99.90;4.90;100690.00;;;;344630;28;83471;-87
2023/01/31 00:33:41;;;;;;;;;;;4.30;99.90;4.80;100690.00;;;;342863;28;90287;-87
2023/01/31 00:33:53;;;;;;;;;;;4.30;99.90;4.80;100687.00;;;;343375;28;82281;-87
2023/01/31 00:34:05;;;;;;;;;;;4.30;99.90;4.80;100689.00;;;;345643;28;91396;-87
2023/01/31 00:34:16;;;;;;;;;;;4.30;99.90;4.80;100682.00;;;;340606;28;83482;-87
2023/01/31 00:34:28;;;;;;;;;;;4.30;99.90;4.80;100689.00;;;;341316;28;89539;-86
2023/01/31 00:34:40;;;;;;;;;;;4.30;99.90;4.90;100686.00;;;;341844;28;83365;-87
2023/01/31 00:34:53;;;;;;;;;;;4.30;99.90;4.90;100696.00;;;;340082;28;90748;-87
2023/01/31 00:35:05;;;;;;;;;;;4.30;99.90;4.90;100678.00;;;;341837;28;83511;-87
2023/01/31 00:35:16;;;;;;;;;;;4.30;99.90;4.90;100685.00;;;;344148;28;92136;-86
2023/01/31 00:35:29;;;;;;;;;;;4.30;99.90;4.70;100690.00;;;;343336;28;83465;-87
2023/01/31 00:35:40;;;;;;;;;;;4.30;99.90;4.70;100691.00;;;;344167;28;91183;-87
2023/01/31 00:35:52;;;;;;;;;;;4.30;99.90;4.60;100679.00;;;;343335;28;82471;-87
2023/01/31 00:36:07;;;;;;;;;;;4.20;99.90;4.60;100691.00;;;;338801;28;91040;-87
2023/01/31 00:36:21;;;;;;;;;;;4.20;99.90;4.60;100684.00;;;;343310;28;83323;-86
2023/01/31 00:36:33;;;;;;;;;;;4.20;99.90;4.70;100684.00;;;;342759;28;91647;-86
2023/01/31 00:36:45;;;;;;;;;;;4.20;99.90;4.80;100679.00;;;;343315;28;83459;-86
2023/01/31 00:36:57;;;;;;;;;;;4.20;99.90;4.80;100668.00;;;;341549;28;90484;-87
2023/01/31 00:37:09;;;;;;;;;;;4.20;99.90;4.80;100678.00;;;;343332;28;83480;-87
2023/01/31 00:37:21;;;;;;;;;;;4.20;99.90;4.70;100682.00;;;;345493;28;91921;-87
2023/01/31 00:37:32;;;;;;;;;;;4.20;99.90;4.70;100680.00;;;;341967;28;82481;-87
2023/01/31 00:37:45;;;;;;;;;;;4.20;99.90;4.70;100684.00;;;;342523;28;90574;-87
2023/01/31 00:37:57;;;;;;;;;;;4.20;99.90;4.80;100679.00;;;;343151;28;83622;-87
2023/01/31 00:38:08;;;;;;;;;;;4.20;99.90;4.80;100679.00;;;;341511;28;92157;-87
2023/01/31 00:38:20;;;;;;;;;;;4.20;99.90;4.80;100673.00;;;;344685;28;83155;-87
2023/01/31 00:38:32;;;;;;;;;;;4.20;99.90;4.70;100682.00;;;;342786;28;88102;-86
2023/01/31 00:38:44;;;;;;;;;;;4.20;99.90;4.80;100684.00;;;;341686;28;83332;-87
2023/01/31 00:38:57;;;;;;;;;;;4.20;99.90;4.80;100686.00;;;;343915;28;91118;-87
2023/01/31 00:39:09;;;;;;;;;;;4.20;99.90;4.70;100681.00;;;;340530;28;82418;-86
2023/01/31 00:39:21;;;;;;;;;;;4.20;99.90;4.70;100684.00;;;;341466;28;91587;-87
2023/01/31 00:39:33;;;;;;;;;;;4.20;99.90;4.70;100678.00;;;;341945;28;82626;-86
2023/01/31 00:39:45;;;;;;;;;;;4.20;99.90;4.70;100675.00;;;;341483;28;90405;-87
2023/01/31 00:39:56;;;;;;;;;;;4.20;99.90;4.70;100676.00;;;;344383;28;82564;-87
2023/01/31 00:40:09;;;;;;;;;;;4.20;99.90;4.70;100666.00;;;;341381;28;90116;-86
2023/01/31 00:40:21;;;;;;;;;;;4.20;99.90;4.70;100676.00;;;;344685;28;83372;-86
2023/01/31 00:40:33;;;;;;;;;;;4.20;99.90;4.60;100672.00;;;;342844;28;88456;-87
2023/01/31 00:40:53;;;;;;;;;;;4.20;99.90;4.70;100677.00;;;;341911;28;82587;-87
2023/01/31 00:41:05;;;;;;;;;;;4.20;99.90;4.70;100676.00;;;;344218;28;89801;-87
2023/01/31 00:41:22;;;;;;;;;;;4.20;99.90;4.80;100669.00;;;;341608;28;83662;-87
2023/01/31 00:41:35;;;;;;;;;;;4.20;99.90;4.70;100673.00;;;;341479;28;92180;-86
2023/01/31 00:41:48;;;;;;;;;;;4.20;99.90;4.70;100667.00;;;;343334;28;82373;-87
2023/01/31 00:41:59;;;;;;;;;;;4.20;99.90;4.70;100671.00;;;;342764;28;90490;-87
2023/01/31 00:42:11;;;;;;;;;;;4.20;99.90;4.70;100674.00;;;;343368;28;82412;-87
2023/01/31 00:42:23;;;;;;;;;;;4.20;99.90;4.70;100664.00;;;;344260;28;91145;-86
2023/01/31 00:42:35;;;;;;;;;;;4.20;99.90;4.70;100659.00;;;;340441;28;82698;-86
2023/01/31 00:42:47;;;;;;;;;;;4.20;99.90;4.70;100667.00;;;;341431;28;92294;-87
2023/01/31 00:42:59;;;;;;;;;;;4.20;99.90;4.60;100671.00;;;;344458;28;83387;-87
2023/01/31 00:43:10;;;;;;;;;;;4.20;99.90;4.70;100668.00;;;;341507;28;89547;-86
2023/01/31 00:43:22;;;;;;;;;;;4.20;99.90;4.70;100667.00;;;;344412;28;84102;-87
2023/01/31 00:43:34;;;;;;;;;;;4.10;99.90;4.60;100674.00;;;;345522;28;90480;-87
2023/01/31 00:43:46;;;;;;;;;;;4.10;99.90;4.60;100671.00;;;;342019;28;83372;-87
2023/01/31 00:43:58;;;;;;;;;;;4.10;99.90;4.70;100677.00;;;;340035;28;93130;-87
2023/01/31 00:44:10;;;;;;;;;;;4.20;99.90;4.70;100672.00;;;;341979;28;82482;-87
2023/01/31 00:44:21;;;;;;;;;;;4.20;99.90;4.70;100669.00;;;;342823;28;91534;-87
2023/01/31 00:44:33;;;;;;;;;;;4.20;99.90;4.70;100673.00;;;;343340;28;83381;-87
2023/01/31 00:44:45;;;;;;;;;;;4.10;99.90;4.60;100667.00;;;;341640;28;88889;-87
2023/01/31 00:44:57;;;;;;;;;;;4.20;99.90;4.60;100677.00;;;;341997;28;83171;-87
2023/01/31 00:45:09;;;;;;;;;;;4.20;99.90;4.60;100681.00;;;;345585;28;90865;-86
2023/01/31 00:45:21;;;;;;;;;;;4.10;99.90;4.60;100680.00;;;;343218;28;83594;-86
2023/01/31 00:45:33;;;;;;;;;;;4.10;99.90;4.60;100670.00;;;;341573;28;89574;-87
2023/01/31 00:45:45;;;;;;;;;;;4.10;99.90;4.60;100672.00;;;;346139;28;82435;-86
2023/01/31 00:45:57;;;;;;;;;;;4.10;99.90;4.60;100668.00;;;;339968;28;91838;-86
2023/01/31 00:46:09;;;;;;;;;;;4.10;99.90;4.60;100673.00;;;;341936;28;83320;-87
2023/01/31 00:46:22;;;;;;;;;;;4.10;99.90;4.60;100673.00;;;;344213;28;90732;-87
2023/01/31 00:46:34;;;;;;;;;;;4.10;99.90;4.70;100672.00;;;;341887;28;82501;-86
2023/01/31 00:46:47;;;;;;;;;;;4.10;99.90;4.60;100667.00;;;;344270;28;89217;-87
2023/01/31 00:46:59;;;;;;;;;;;4.10;99.90;4.70;100676.00;;;;341983;28;83354;-87
2023/01/31 00:47:11;;;;;;;;;;;4.10;99.90;4.60;100671.00;;;;342663;28;90062;-87
2023/01/31 00:47:23;;;;;;;;;;;4.10;99.90;4.60;100675.00;;;;343222;28;83482;-87
2023/01/31 00:47:34;;;;;;;;;;;4.10;99.90;4.60;100671.00;;;;342878;28;89693;-86
2023/01/31 00:47:47;;;;;;;;;;;4.10;99.90;4.60;100671.00;;;;343379;28;83453;-87
2023/01/31 00:47:58;;;;;;;;;;;4.10;99.90;4.60;100667.00;;;;342809;28;90321;-87
2023/01/31 00:48:10;;;;;;;;;;;4.10;99.90;4.60;100670.00;;;;343274;28;83382;-87
2023/01/31 00:48:22;;;;;;;;;;;4.10;99.90;4.70;100663.00;;;;342943;28;88630;-87
2023/01/31 00:48:34;;;;;;;;;;;4.10;99.90;4.70;100664.00;;;;341902;28;83325;-86
2023/01/31 00:48:46;;;;;;;;;;;4.10;99.90;4.70;100675.00;;;;340254;28;89239;-87
2023/01/31 00:48:58;;;;;;;;;;;4.10;99.90;4.60;100670.00;;;;341929;28;83408;-86
2023/01/31 00:49:10;;;;;;;;;;;4.10;99.90;4.60;100682.00;;;;340130;28;91310;-87
2023/01/31 00:49:21;;;;;;;;;;;4.10;99.90;4.60;100677.00;;;;343289;28;82535;-86
2023/01/31 00:49:33;;;;;;;;;;;4.10;99.90;4.60;100677.00;;;;340179;28;91049;-87
2023/01/31 00:49:46;;;;;;;;;;;4.10;99.90;4.60;100674.00;;;;342051;28;82394;-86
2023/01/31 00:49:57;;;;;;;;;;;4.10;99.90;4.60;100671.00;;;;340085;28;90524;-87
2023/01/31 00:50:15;;;;;;;;;;;4.10;99.90;4.70;100671.00;;;;340679;28;83379;-87
2023/01/31 00:50:27;;;;;;;;;;;4.10;99.90;4.70;100672.00;;;;341599;28;90439;-87
2023/01/31 00:50:39;;;;;;;;;;;4.10;99.90;4.70;100679.00;;;;341486;28;84114;-87
2023/01/31 00:50:51;;;;;;;;;;;4.10;99.90;4.70;100671.00;;;;342858;28;91439;-87
2023/01/31 00:51:02;;;;;;;;;;;4.10;99.90;4.80;100674.00;;;;343235;28;82595;-87
2023/01/31 00:51:14;;;;;;;;;;;4.10;99.90;4.70;100673.00;;;;342848;28;89487;-86
2023/01/31 00:51:26;;;;;;;;;;;4.10;99.90;4.80;100677.00;;;;341901;28;83527;-87
2023/01/31 00:51:38;;;;;;;;;;;4.10;99.90;4.70;100672.00;;;;342906;28;90306;-87
2023/01/31 00:51:49;;;;;;;;;;;4.20;99.90;4.70;100669.00;;;;344635;28;83416;-87
2023/01/31 00:52:01;;;;;;;;;;;4.20;99.90;4.70;100682.00;;;;342904;28;89714;-86
2023/01/31 00:52:13;;;;;;;;;;;4.10;99.90;4.70;100677.00;;;;344701;28;82441;-87
2023/01/31 00:52:25;;;;;;;;;;;4.10;99.90;4.70;100675.00;;;;344233;28;89092;-87
2023/01/31 00:52:37;;;;;;;;;;;4.10;99.90;4.70;100675.00;;;;341702;28;82601;-87
2023/01/31 00:52:49;;;;;;;;;;;4.10;99.90;4.70;100680.00;;;;341296;28;90560;-86
2023/01/31 00:53:01;;;;;;;;;;;4.10;99.90;4.70;100684.00;;;;341955;28;83337;-87
2023/01/31 00:53:12;;;;;;;;;;;4.10;99.90;4.70;100678.00;;;;342796;28;92299;-87
2023/01/31 00:53:24;;;;;;;;;;;4.10;99.90;4.70;100680.00;;;;342016;28;83237;-86
2023/01/31 00:53:36;;;;;;;;;;;4.10;99.90;4.70;100683.00;;;;342865;28;89482;-86
2023/01/31 00:53:49;;;;;;;;;;;4.20;99.90;4.70;100688.00;;;;341986;28;83311;-87
2023/01/31 00:54:01;;;;;;;;;;;4.10;99.90;4.70;100682.00;;;;343825;28;92163;-87
2023/01/31 00:54:12;;;;;;;;;;;4.20;99.90;4.80;100678.00;;;;343364;28;83429;-87
2023/01/31 00:54:24;;;;;;;;;;;4.10;99.90;4.80;100676.00;;;;342778;28;91592;-86
2023/01/31 00:54:36;;;;;;;;;;;4.10;99.90;4.80;100689.00;;;;341919;28;83492;-87
2023/01/31 00:54:49;;;;;;;;;;;4.20;99.90;4.80;100673.00;;;;341525;28;87778;-87
2023/01/31 00:55:00;;;;;;;;;;;4.20;99.90;4.80;100677.00;;;;342043;28;83419;-86
2023/01/31 00:55:12;;;;;;;;;;;4.20;99.90;4.80;100676.00;;;;341545;28;89222;-87
2023/01/31 00:55:24;;;;;;;;;;;4.20;99.90;4.80;100675.00;;;;343313;28;83477;-87
2023/01/31 00:55:36;;;;;;;;;;;4.20;99.90;4.80;100683.00;;;;341549;28;88443;-87
2023/01/31 00:55:49;;;;;;;;;;;4.20;99.90;4.80;100677.00;;;;343301;28;82528;-87
2023/01/31 00:56:06;;;;;;;;;;;4.20;99.90;4.80;100675.00;;;;341408;28;90019;-87
2023/01/31 00:56:20;;;;;;;;;;;4.20;99.90;4.80;100684.00;;;;342895;28;82520;-85
2023/01/31 00:56:32;;;;;;;;;;;4.20;99.90;4.80;100674.00;;;;341423;28;91840;-87
2023/01/31 00:56:44;;;;;;;;;;;4.20;99.90;4.70;100679.00;;;;343120;28;83608;-87
2023/01/31 00:56:56;;;;;;;;;;;4.20;99.90;4.70;100678.00;;;;341551;28;89169;-87
2023/01/31 00:57:08;;;;;;;;;;;4.20;99.90;4.70;100676.00;;;;342027;28;83141;-87
2023/01/31 00:57:20;;;;;;;;;;;4.20;99.90;4.80;100680.00;;;;341378;28;90521;-87
2023/01/31 00:57:31;;;;;;;;;;;4.20;99.90;4.80;100674.00;;;;341930;28;83532;-87
2023/01/31 00:57:43;;;;;;;;;;;4.20;99.90;4.80;100674.00;;;;342791;28;91543;-87
2023/01/31 00:57:55;;;;;;;;;;;4.20;99.90;4.90;100671.00;;;;343224;28;83504;-87
2023/01/31 00:58:06;;;;;;;;;;;4.20;99.90;4.90;100682.00;;;;342955;28;90006;-87
2023/01/31 00:58:19;;;;;;;;;;;4.20;99.90;4.90;100676.00;;;;341795;28;83543;-87
2023/01/31 00:58:31;;;;;;;;;;;4.30;99.90;4.90;100673.00;;;;342574;28;89500;-86
2023/01/31 00:58:42;;;;;;;;;;;4.20;99.90;4.90;100674.00;;;;343284;28;82263;-86
2023/01/31 00:58:54;;;;;;;;;;;4.20;99.90;4.90;100670.00;;;;341482;28;89808;-87
2023/01/31 00:59:07;;;;;;;;;;;4.20;99.90;4.90;100671.00;;;;341878;28;83403;-87
2023/01/31 00:59:19;;;;;;;;;;;4.20;99.90;4.90;100675.00;;;;342725;28;88435;-87
2023/01/31 00:59:31;;;;;;;;;;;4.30;99.90;4.90;100671.00;;;;343337;28;83377;-87
2023/01/31 00:59:42;;;;;;;;;;;4.30;99.90;4.90;100682.00;;;;341512;28;90421;-87
2023/01/31 00:59:54;;;;;;;;;;;4.30;99.90;4.80;100686.00;;;;341889;28;82492;-87
2023/01/31 01:00:07;;;;;;;;;;;4.30;99.90;4.90;100682.00;;;;341529;28;91244;-87
2023/01/31 01:00:19;;;;;;;;;;;4.20;99.90;4.90;100682.00;;;;340614;28;83379;-87
2023/01/31 01:00:31;;;;;;;;;;;4.30;99.90;4.90;100684.00;;;;341523;28;92033;-87
2023/01/31 01:00:43;;;;;;;;;;;4.30;99.90;4.90;100677.00;;;;341685;28;82553;-87
2023/01/31 01:00:55;;;;;;;;;;;4.30;99.90;4.90;100678.00;;;;342939;28;88158;-87
2023/01/31 01:01:20;;;;;;;;;;;4.30;99.90;4.90;100677.00;;;;341928;28;83468;-87
2023/01/31 01:01:33;;;;;;;;;;;4.30;99.90;4.90;100674.00;;;;340209;28;89233;-87
2023/01/31 01:01:45;;;;;;;;;;;4.30;99.90;4.90;100673.00;;;;341934;28;83380;-87
2023/01/31 01:01:57;;;;;;;;;;;4.30;99.90;4.90;100675.00;;;;342794;28;92385;-87
2023/01/31 01:02:09;;;;;;;;;;;4.30;99.90;4.90;100683.00;;;;342044;28;83325;-87